createdAt,value
2018-05-13T12:08:19.361Z,19.90
2018-05-13T12:10:47.599Z,22.60
2018-05-13T12:21:58.644Z,26.50
2018-05-13T12:35:58.399Z,38.00
2018-05-13T12:38:27.184Z,35.70
2018-05-13T12:40:54.644Z,36.60
2018-05-13T12:43:22.118Z,37.70
2018-05-13T12:45:49.584Z,41.30
2018-05-13T12:48:17.044Z,40.57
2018-05-13T12:50:46.032Z,39.00
2018-05-13T14:51:32.827Z,40.20
2018-05-13T15:20:01.946Z,36.93
2018-05-13T16:40:22.862Z,38.83
2018-05-13T16:42:50.321Z,37.87
2018-05-13T16:45:17.775Z,38.40
2018-05-13T16:47:45.929Z,38.30
2018-05-13T16:50:13.395Z,39.10
2018-05-13T16:52:41.080Z,37.13
2018-05-13T16:55:08.650Z,38.60
2018-05-13T16:57:39.800Z,37.70
2018-05-13T17:00:07.247Z,37.00
2018-05-13T17:02:35.236Z,38.50
2018-05-13T17:05:02.663Z,39.10
2018-05-13T17:07:31.380Z,37.43
2018-05-13T17:09:58.864Z,37.57
2018-05-13T17:12:26.352Z,37.30
2018-05-13T17:14:53.821Z,36.07
2018-05-13T17:17:21.337Z,35.77
2018-05-13T17:19:48.810Z,37.10
2018-05-13T17:22:16.292Z,35.53
2018-05-13T17:24:43.746Z,35.03
2018-05-13T17:27:11.248Z,33.63
2018-05-13T17:29:39.471Z,35.00
2018-05-13T17:32:07.724Z,36.20
2018-05-13T17:34:35.206Z,35.23
2018-05-13T17:37:02.654Z,33.70
2018-05-13T17:39:31.018Z,32.80
2018-05-13T17:41:58.492Z,36.87
2018-05-13T17:44:25.990Z,35.83
2018-05-13T17:46:53.412Z,35.97
2018-05-13T17:49:22.001Z,36.00
2018-05-13T17:51:49.532Z,35.07
2018-05-13T17:54:19.134Z,34.47
2018-05-13T17:56:46.702Z,36.40
2018-05-13T17:59:14.216Z,36.83
2018-05-13T18:01:42.431Z,36.83
2018-05-13T18:04:09.973Z,38.30
2018-05-13T18:06:37.450Z,36.40
2018-05-13T18:09:05.786Z,38.57
2018-05-13T18:11:33.282Z,37.40
2018-05-13T18:14:01.510Z,36.77
2018-05-13T18:16:28.961Z,36.70
2018-05-13T18:18:56.451Z,37.13
2018-05-13T18:21:23.911Z,38.17
2018-05-13T18:23:51.356Z,40.97
2018-05-13T18:26:19.641Z,36.47
2018-05-13T18:28:48.020Z,38.10
2018-05-13T18:31:15.571Z,36.93
2018-05-13T18:33:43.840Z,37.67
2018-05-13T18:36:12.469Z,37.40
2018-05-13T18:38:39.910Z,36.47
2018-05-13T18:41:07.553Z,37.80
2018-05-13T18:43:35.056Z,37.40
2018-05-13T18:46:02.618Z,37.23
2018-05-13T18:48:30.912Z,35.23
2018-05-13T18:50:59.616Z,36.27
2018-05-13T18:53:27.245Z,37.67
2018-05-13T18:55:54.782Z,37.90
2018-05-13T18:58:22.276Z,36.80
2018-05-13T19:00:49.727Z,37.00
2018-05-13T19:03:17.233Z,37.23
2018-05-13T19:05:44.708Z,38.33
2018-05-13T19:08:12.184Z,37.77
2018-05-13T19:10:39.671Z,37.73
2018-05-13T19:13:07.464Z,39.17
2018-05-13T19:15:35.689Z,38.63
2018-05-13T19:18:04.756Z,38.13
2018-05-13T19:20:32.202Z,37.97
2018-05-13T19:23:00.207Z,37.10
2018-05-13T19:25:27.664Z,38.67
2018-05-13T19:27:55.810Z,38.57
2018-05-13T19:30:23.374Z,39.73
2018-05-13T19:32:52.214Z,37.67
2018-05-13T19:35:19.768Z,38.37
2018-05-13T19:37:47.481Z,28.87
2018-05-13T19:40:14.996Z,30.10
2018-05-13T19:42:43.248Z,31.77
2018-05-13T19:45:10.699Z,35.07
2018-05-13T19:47:38.180Z,38.20
2018-05-13T19:50:05.642Z,37.90
2018-05-13T19:52:33.899Z,34.30
2018-05-13T19:55:01.447Z,35.43
2018-05-13T19:57:28.887Z,33.83
2018-05-13T19:59:56.347Z,34.80
2018-05-13T20:02:23.815Z,34.70
2018-05-13T20:04:51.358Z,34.73
2018-05-13T20:07:18.826Z,34.37
2018-05-13T20:09:47.153Z,32.60
2018-05-13T20:12:14.632Z,37.80
2018-05-13T20:14:44.417Z,34.20
2018-05-13T20:17:12.947Z,34.57
2018-05-13T20:19:40.533Z,32.97
2018-05-13T20:22:07.999Z,34.20
2018-05-13T20:24:36.433Z,35.30
2018-05-13T20:27:03.892Z,33.40
2018-05-13T20:29:31.832Z,31.33
2018-05-13T20:31:59.539Z,35.80
2018-05-13T20:34:26.981Z,32.80
2018-05-13T20:36:54.439Z,32.40
2018-05-13T20:39:22.110Z,34.57
2018-05-13T20:41:49.560Z,34.27
2018-05-13T20:44:17.065Z,34.60
2018-05-13T20:46:44.478Z,32.83
2018-05-13T20:49:11.922Z,35.07
2018-05-13T20:51:39.751Z,32.80
2018-05-13T20:54:07.214Z,34.87
2018-05-13T20:56:35.205Z,35.60
2018-05-13T20:59:02.745Z,33.43
2018-05-13T21:01:30.416Z,32.90
2018-05-13T21:03:58.724Z,32.27
2018-05-13T21:06:26.847Z,33.97
2018-05-13T21:08:54.378Z,33.40
2018-05-13T21:11:21.936Z,33.07
2018-05-13T21:13:50.275Z,33.43
2018-05-13T21:16:17.780Z,33.87
2018-05-13T21:18:46.005Z,32.10
2018-05-13T21:21:13.448Z,30.73
2018-05-13T21:23:40.907Z,30.90
2018-05-13T21:26:08.351Z,30.70
2018-05-13T21:28:35.794Z,33.37
2018-05-13T21:31:03.255Z,32.43
2018-05-13T21:33:31.535Z,32.60
2018-05-13T21:35:58.987Z,32.57
2018-05-13T21:38:27.431Z,34.03
2018-05-13T21:40:54.875Z,35.70
2018-05-13T21:43:22.570Z,33.57
2018-05-13T21:45:50.043Z,32.77
2018-05-13T21:48:17.613Z,33.93
2018-05-13T21:50:45.006Z,34.77
2018-05-13T21:53:12.488Z,33.20
2018-05-13T21:55:40.819Z,34.07
2018-05-13T21:58:08.272Z,35.10
2018-05-13T22:00:35.739Z,33.67
2018-05-13T22:03:03.183Z,32.90
2018-05-13T22:05:30.629Z,34.63
2018-05-13T23:51:50.571Z,31.17
2018-05-13T23:54:18.051Z,31.40
2018-05-13T23:56:45.490Z,33.60
